sensor_id;sensor_type;location;lat;lon;timestamp;temperature;humidity
69436;SHT31;56625;54.322;18.582;2023-05-07T00:00:30;5.92;76.25
69436;SHT31;56625;54.322;18.582;2023-05-07T00:03:17;5.89;76.15
69436;SHT31;56625;54.322;18.582;2023-05-07T00:05:46;5.89;76.05
69436;SHT31;56625;54.322;18.582;2023-05-07T00:08:14;5.92;75.67
69436;SHT31;56625;54.322;18.582;2023-05-07T00:10:42;5.92;75.44
69436;SHT31;56625;54.322;18.582;2023-05-07T00:13:10;5.89;75.32
69436;SHT31;56625;54.322;18.582;2023-05-07T00:15:38;5.87;75.24
69436;SHT31;56625;54.322;18.582;2023-05-07T00:18:06;5.83;75.14
69436;SHT31;56625;54.322;18.582;2023-05-07T00:20:34;5.77;75.21
69436;SHT31;56625;54.322;18.582;2023-05-07T00:23:02;5.74;75.18
69436;SHT31;56625;54.322;18.582;2023-05-07T00:25:30;5.68;75.15
69436;SHT31;56625;54.322;18.582;2023-05-07T00:27:58;5.61;75.15
69436;SHT31;56625;54.322;18.582;2023-05-07T00:30:31;5.60;75.08
69436;SHT31;56625;54.322;18.582;2023-05-07T00:32:59;5.63;74.71
69436;SHT31;56625;54.322;18.582;2023-05-07T00:35:28;5.62;74.41
69436;SHT31;56625;54.322;18.582;2023-05-07T00:37:57;5.57;74.33
69436;SHT31;56625;54.322;18.582;2023-05-07T00:40:25;5.50;74.48
69436;SHT31;56625;54.322;18.582;2023-05-07T00:42:53;5.46;74.56
69436;SHT31;56625;54.322;18.582;2023-05-07T00:45:26;5.42;74.54
69436;SHT31;56625;54.322;18.582;2023-05-07T00:47:59;5.35;74.61
69436;SHT31;56625;54.322;18.582;2023-05-07T00:50:29;5.27;74.68
69436;SHT31;56625;54.322;18.582;2023-05-07T00:52:59;5.21;74.74
69436;SHT31;56625;54.322;18.582;2023-05-07T00:55:28;5.16;74.89
69436;SHT31;56625;54.322;18.582;2023-05-07T00:57:56;5.10;74.91
69436;SHT31;56625;54.322;18.582;2023-05-07T01:00:24;5.07;75.02
69436;SHT31;56625;54.322;18.582;2023-05-07T01:02:52;5.03;75.11
69436;SHT31;56625;54.322;18.582;2023-05-07T01:05:21;5.02;75.14
69436;SHT31;56625;54.322;18.582;2023-05-07T01:07:52;4.99;75.17
69436;SHT31;56625;54.322;18.582;2023-05-07T01:10:23;4.96;75.24
69436;SHT31;56625;54.322;18.582;2023-05-07T01:12:52;4.90;75.20
69436;SHT31;56625;54.322;18.582;2023-05-07T01:15:21;4.80;75.38
69436;SHT31;56625;54.322;18.582;2023-05-07T01:17:49;4.75;75.80
69436;SHT31;56625;54.322;18.582;2023-05-07T01:20:17;4.70;75.71
69436;SHT31;56625;54.322;18.582;2023-05-07T01:22:47;4.62;75.82
69436;SHT31;56625;54.322;18.582;2023-05-07T01:25:15;4.54;76.08
69436;SHT31;56625;54.322;18.582;2023-05-07T01:27:43;4.45;76.23
69436;SHT31;56625;54.322;18.582;2023-05-07T01:30:11;4.39;76.58
69436;SHT31;56625;54.322;18.582;2023-05-07T01:32:42;4.33;76.70
69436;SHT31;56625;54.322;18.582;2023-05-07T01:35:16;4.29;77.03
69436;SHT31;56625;54.322;18.582;2023-05-07T01:37:49;4.27;77.31
69436;SHT31;56625;54.322;18.582;2023-05-07T01:40:18;4.21;77.34
69436;SHT31;56625;54.322;18.582;2023-05-07T01:42:46;4.20;77.48
69436;SHT31;56625;54.322;18.582;2023-05-07T01:45:15;4.14;77.63
69436;SHT31;56625;54.322;18.582;2023-05-07T01:47:43;4.09;77.89
69436;SHT31;56625;54.322;18.582;2023-05-07T01:50:12;4.10;78.27
69436;SHT31;56625;54.322;18.582;2023-05-07T01:52:40;4.13;78.26
69436;SHT31;56625;54.322;18.582;2023-05-07T01:55:08;4.12;78.31
69436;SHT31;56625;54.322;18.582;2023-05-07T01:57:37;4.06;78.21
69436;SHT31;56625;54.322;18.582;2023-05-07T02:00:05;4.04;78.51
69436;SHT31;56625;54.322;18.582;2023-05-07T02:02:33;4.02;78.43
69436;SHT31;56625;54.322;18.582;2023-05-07T02:05:01;3.94;78.35
69436;SHT31;56625;54.322;18.582;2023-05-07T02:07:30;3.87;78.70
69436;SHT31;56625;54.322;18.582;2023-05-07T02:09:57;3.83;78.93
69436;SHT31;56625;54.322;18.582;2023-05-07T02:12:25;3.82;79.00
69436;SHT31;56625;54.322;18.582;2023-05-07T02:14:53;3.80;79.17
69436;SHT31;56625;54.322;18.582;2023-05-07T02:17:21;3.77;79.13
69436;SHT31;56625;54.322;18.582;2023-05-07T02:19:49;3.72;79.34
69436;SHT31;56625;54.322;18.582;2023-05-07T02:22:17;3.68;79.60
69436;SHT31;56625;54.322;18.582;2023-05-07T02:24:45;3.67;79.74
69436;SHT31;56625;54.322;18.582;2023-05-07T02:27:13;3.67;79.90
69436;SHT31;56625;54.322;18.582;2023-05-07T02:29:40;3.65;79.86
69436;SHT31;56625;54.322;18.582;2023-05-07T02:32:08;3.62;79.75
69436;SHT31;56625;54.322;18.582;2023-05-07T02:34:36;3.58;79.66
69436;SHT31;56625;54.322;18.582;2023-05-07T02:37:04;3.51;79.57
69436;SHT31;56625;54.322;18.582;2023-05-07T02:39:32;3.45;79.72
69436;SHT31;56625;54.322;18.582;2023-05-07T02:42:00;3.43;79.93
69436;SHT31;56625;54.322;18.582;2023-05-07T02:44:29;3.41;80.18
69436;SHT31;56625;54.322;18.582;2023-05-07T02:46:58;3.37;80.27
69436;SHT31;56625;54.322;18.582;2023-05-07T02:49:26;3.33;80.24
69436;SHT31;56625;54.322;18.582;2023-05-07T02:51:54;3.30;80.41
69436;SHT31;56625;54.322;18.582;2023-05-07T02:54:23;3.30;80.65
69436;SHT31;56625;54.322;18.582;2023-05-07T02:56:51;3.28;80.55
69436;SHT31;56625;54.322;18.582;2023-05-07T02:59:18;3.25;80.46
69436;SHT31;56625;54.322;18.582;2023-05-07T03:01:46;3.23;80.50
69436;SHT31;56625;54.322;18.582;2023-05-07T03:04:16;3.18;80.39
69436;SHT31;56625;54.322;18.582;2023-05-07T03:06:44;3.17;80.35
69436;SHT31;56625;54.322;18.582;2023-05-07T03:09:12;3.12;80.38
69436;SHT31;56625;54.322;18.582;2023-05-07T03:11:40;3.09;80.52
69436;SHT31;56625;54.322;18.582;2023-05-07T03:14:08;3.05;81.03
69436;SHT31;56625;54.322;18.582;2023-05-07T03:16:37;3.06;81.43
69436;SHT31;56625;54.322;18.582;2023-05-07T03:19:05;3.05;81.33
69436;SHT31;56625;54.322;18.582;2023-05-07T03:21:34;3.04;81.26
69436;SHT31;56625;54.322;18.582;2023-05-07T03:24:01;3.06;81.25
69436;SHT31;56625;54.322;18.582;2023-05-07T03:26:29;3.05;81.00
69436;SHT31;56625;54.322;18.582;2023-05-07T03:28:57;3.03;80.83
69436;SHT31;56625;54.322;18.582;2023-05-07T03:31:25;3.00;80.82
69436;SHT31;56625;54.322;18.582;2023-05-07T03:33:53;3.00;80.85
69436;SHT31;56625;54.322;18.582;2023-05-07T03:36:24;2.98;80.85
69436;SHT31;56625;54.322;18.582;2023-05-07T03:38:54;3.02;81.28
69436;SHT31;56625;54.322;18.582;2023-05-07T03:41:22;3.10;81.24
69436;SHT31;56625;54.322;18.582;2023-05-07T03:43:50;3.23;81.28
69436;SHT31;56625;54.322;18.582;2023-05-07T03:46:18;3.46;81.18
69436;SHT31;56625;54.322;18.582;2023-05-07T03:48:46;3.85;81.20
69436;SHT31;56625;54.322;18.582;2023-05-07T03:51:14;4.24;80.43
69436;SHT31;56625;54.322;18.582;2023-05-07T03:53:42;4.60;79.57
69436;SHT31;56625;54.322;18.582;2023-05-07T03:56:09;4.97;78.83
69436;SHT31;56625;54.322;18.582;2023-05-07T03:58:37;5.27;77.56
69436;SHT31;56625;54.322;18.582;2023-05-07T04:01:05;5.57;76.42
69436;SHT31;56625;54.322;18.582;2023-05-07T04:03:33;5.86;75.83
69436;SHT31;56625;54.322;18.582;2023-05-07T04:06:01;6.25;75.37
69436;SHT31;56625;54.322;18.582;2023-05-07T04:08:29;6.51;73.43
69436;SHT31;56625;54.322;18.582;2023-05-07T04:10:57;6.77;73.55
69436;SHT31;56625;54.322;18.582;2023-05-07T04:13:27;7.05;71.94
69436;SHT31;56625;54.322;18.582;2023-05-07T04:15:57;7.17;70.85
69436;SHT31;56625;54.322;18.582;2023-05-07T04:18:25;7.24;70.15
69436;SHT31;56625;54.322;18.582;2023-05-07T04:20:53;7.31;69.86
69436;SHT31;56625;54.322;18.582;2023-05-07T04:23:21;7.45;69.65
69436;SHT31;56625;54.322;18.582;2023-05-07T04:25:49;7.60;68.88
69436;SHT31;56625;54.322;18.582;2023-05-07T04:28:18;7.67;68.26
69436;SHT31;56625;54.322;18.582;2023-05-07T04:30:46;7.73;68.08
69436;SHT31;56625;54.322;18.582;2023-05-07T04:33:14;7.83;67.97
69436;SHT31;56625;54.322;18.582;2023-05-07T04:35:44;7.96;67.62
69436;SHT31;56625;54.322;18.582;2023-05-07T04:38:12;8.06;67.23
69436;SHT31;56625;54.322;18.582;2023-05-07T04:40:40;8.26;67.73
69436;SHT31;56625;54.322;18.582;2023-05-07T04:43:08;8.63;67.96
69436;SHT31;56625;54.322;18.582;2023-05-07T04:45:36;9.06;67.16
69436;SHT31;56625;54.322;18.582;2023-05-07T04:48:04;9.44;66.56
69436;SHT31;56625;54.322;18.582;2023-05-07T04:50:32;9.76;65.27
69436;SHT31;56625;54.322;18.582;2023-05-07T04:53:00;9.97;65.01
69436;SHT31;56625;54.322;18.582;2023-05-07T04:55:28;10.23;64.64
69436;SHT31;56625;54.322;18.582;2023-05-07T04:57:56;10.62;64.62
69436;SHT31;56625;54.322;18.582;2023-05-07T05:00:24;11.19;63.60
69436;SHT31;56625;54.322;18.582;2023-05-07T05:02:52;11.72;61.13
69436;SHT31;56625;54.322;18.582;2023-05-07T05:05:20;12.26;59.29
69436;SHT31;56625;54.322;18.582;2023-05-07T05:07:48;12.50;58.58
69436;SHT31;56625;54.322;18.582;2023-05-07T05:10:16;12.61;57.18
69436;SHT31;56625;54.322;18.582;2023-05-07T05:12:44;12.37;51.88
69436;SHT31;56625;54.322;18.582;2023-05-07T05:15:12;12.16;51.77
69436;SHT31;56625;54.322;18.582;2023-05-07T05:17:43;12.60;51.29
69436;SHT31;56625;54.322;18.582;2023-05-07T05:20:11;13.08;50.57
69436;SHT31;56625;54.322;18.582;2023-05-07T05:22:40;13.30;47.23
69436;SHT31;56625;54.322;18.582;2023-05-07T05:25:10;13.42;47.54
69436;SHT31;56625;54.322;18.582;2023-05-07T05:27:38;13.36;46.66
69436;SHT31;56625;54.322;18.582;2023-05-07T05:30:06;13.18;45.46
69436;SHT31;56625;54.322;18.582;2023-05-07T05:32:35;13.15;45.95
69436;SHT31;56625;54.322;18.582;2023-05-07T05:35:03;13.04;45.59
69436;SHT31;56625;54.322;18.582;2023-05-07T05:37:31;12.85;44.17
69436;SHT31;56625;54.322;18.582;2023-05-07T05:39:59;12.75;44.83
69436;SHT31;56625;54.322;18.582;2023-05-07T05:42:27;12.56;43.42
69436;SHT31;56625;54.322;18.582;2023-05-07T05:44:55;12.30;43.60
69436;SHT31;56625;54.322;18.582;2023-05-07T05:47:22;12.05;43.42
69436;SHT31;56625;54.322;18.582;2023-05-07T05:49:50;11.90;43.68
69436;SHT31;56625;54.322;18.582;2023-05-07T05:52:18;11.77;43.82
69436;SHT31;56625;54.322;18.582;2023-05-07T05:54:46;11.61;43.85
69436;SHT31;56625;54.322;18.582;2023-05-07T05:57:14;11.52;45.20
69436;SHT31;56625;54.322;18.582;2023-05-07T05:59:42;11.59;45.83
69436;SHT31;56625;54.322;18.582;2023-05-07T06:02:10;11.67;45.45
69436;SHT31;56625;54.322;18.582;2023-05-07T06:04:38;11.64;45.36
69436;SHT31;56625;54.322;18.582;2023-05-07T06:07:06;11.69;45.64
69436;SHT31;56625;54.322;18.582;2023-05-07T06:09:34;11.77;45.86
69436;SHT31;56625;54.322;18.582;2023-05-07T06:12:02;11.81;45.03
69436;SHT31;56625;54.322;18.582;2023-05-07T06:14:30;11.82;45.01
69436;SHT31;56625;54.322;18.582;2023-05-07T06:16:57;11.79;44.21
69436;SHT31;56625;54.322;18.582;2023-05-07T06:19:25;11.84;44.74
69436;SHT31;56625;54.322;18.582;2023-05-07T06:21:55;11.90;45.02
69436;SHT31;56625;54.322;18.582;2023-05-07T06:24:28;11.94;44.86
69436;SHT31;56625;54.322;18.582;2023-05-07T06:26:56;11.96;43.99
69436;SHT31;56625;54.322;18.582;2023-05-07T06:29:26;11.99;44.58
69436;SHT31;56625;54.322;18.582;2023-05-07T06:31:54;12.00;43.97
69436;SHT31;56625;54.322;18.582;2023-05-07T06:34:21;12.02;44.51
69436;SHT31;56625;54.322;18.582;2023-05-07T06:36:49;12.14;44.15
69436;SHT31;56625;54.322;18.582;2023-05-07T06:39:20;12.24;44.05
69436;SHT31;56625;54.322;18.582;2023-05-07T06:41:47;12.30;43.97
69436;SHT31;56625;54.322;18.582;2023-05-07T06:44:15;12.37;43.80
69436;SHT31;56625;54.322;18.582;2023-05-07T06:46:43;12.34;43.15
69436;SHT31;56625;54.322;18.582;2023-05-07T06:49:14;12.31;44.01
69436;SHT31;56625;54.322;18.582;2023-05-07T06:51:43;12.39;43.90
69436;SHT31;56625;54.322;18.582;2023-05-07T06:54:11;12.46;43.74
69436;SHT31;56625;54.322;18.582;2023-05-07T06:56:39;12.55;43.19
69436;SHT31;56625;54.322;18.582;2023-05-07T06:59:06;12.64;43.55
69436;SHT31;56625;54.322;18.582;2023-05-07T07:01:34;12.72;42.72
69436;SHT31;56625;54.322;18.582;2023-05-07T07:04:02;12.74;42.20
69436;SHT31;56625;54.322;18.582;2023-05-07T07:06:30;12.78;42.42
69436;SHT31;56625;54.322;18.582;2023-05-07T07:08:59;12.83;42.28
69436;SHT31;56625;54.322;18.582;2023-05-07T07:11:27;12.85;42.43
69436;SHT31;56625;54.322;18.582;2023-05-07T07:13:55;12.91;42.25
69436;SHT31;56625;54.322;18.582;2023-05-07T07:16:24;12.99;42.13
69436;SHT31;56625;54.322;18.582;2023-05-07T07:18:52;13.04;41.39
69436;SHT31;56625;54.322;18.582;2023-05-07T07:21:20;13.09;41.20
69436;SHT31;56625;54.322;18.582;2023-05-07T07:23:47;13.14;39.82
69436;SHT31;56625;54.322;18.582;2023-05-07T07:26:17;13.16;39.76
69436;SHT31;56625;54.322;18.582;2023-05-07T07:28:45;13.22;40.08
69436;SHT31;56625;54.322;18.582;2023-05-07T07:31:13;13.31;40.11
69436;SHT31;56625;54.322;18.582;2023-05-07T07:33:42;13.45;40.59
69436;SHT31;56625;54.322;18.582;2023-05-07T07:36:10;13.63;40.38
69436;SHT31;56625;54.322;18.582;2023-05-07T07:38:38;13.74;40.01
69436;SHT31;56625;54.322;18.582;2023-05-07T07:41:07;13.84;40.25
69436;SHT31;56625;54.322;18.582;2023-05-07T07:43:36;13.89;38.97
69436;SHT31;56625;54.322;18.582;2023-05-07T07:46:04;13.92;36.52
69436;SHT31;56625;54.322;18.582;2023-05-07T07:48:32;13.92;35.65
69436;SHT31;56625;54.322;18.582;2023-05-07T07:51:01;13.94;35.03
69436;SHT31;56625;54.322;18.582;2023-05-07T07:53:28;14.02;35.37
69436;SHT31;56625;54.322;18.582;2023-05-07T07:55:56;14.15;35.37
69436;SHT31;56625;54.322;18.582;2023-05-07T07:58:26;14.20;35.41
69436;SHT31;56625;54.322;18.582;2023-05-07T08:00:54;14.38;36.23
69436;SHT31;56625;54.322;18.582;2023-05-07T08:03:23;14.58;36.28
69436;SHT31;56625;54.322;18.582;2023-05-07T08:05:51;14.71;35.94
69436;SHT31;56625;54.322;18.582;2023-05-07T08:08:19;14.85;35.29
69436;SHT31;56625;54.322;18.582;2023-05-07T08:10:47;14.89;34.72
69436;SHT31;56625;54.322;18.582;2023-05-07T08:13:17;14.97;34.69
69436;SHT31;56625;54.322;18.582;2023-05-07T08:15:46;15.11;35.32
69436;SHT31;56625;54.322;18.582;2023-05-07T08:18:13;15.24;36.02
69436;SHT31;56625;54.322;18.582;2023-05-07T08:20:42;15.32;36.89
69436;SHT31;56625;54.322;18.582;2023-05-07T08:23:10;15.27;33.74
69436;SHT31;56625;54.322;18.582;2023-05-07T08:25:38;15.21;35.29
69436;SHT31;56625;54.322;18.582;2023-05-07T08:28:06;15.26;36.66
69436;SHT31;56625;54.322;18.582;2023-05-07T08:30:36;15.28;32.55
69436;SHT31;56625;54.322;18.582;2023-05-07T08:33:04;15.23;31.70
69436;SHT31;56625;54.322;18.582;2023-05-07T08:35:33;15.30;32.23
69436;SHT31;56625;54.322;18.582;2023-05-07T08:38:01;15.41;34.58
69436;SHT31;56625;54.322;18.582;2023-05-07T08:40:29;15.50;35.09
69436;SHT31;56625;54.322;18.582;2023-05-07T08:43:05;15.36;34.29
69436;SHT31;56625;54.322;18.582;2023-05-07T08:45:34;15.17;35.12
69436;SHT31;56625;54.322;18.582;2023-05-07T08:48:02;14.95;36.52
69436;SHT31;56625;54.322;18.582;2023-05-07T08:50:37;14.81;37.87
69436;SHT31;56625;54.322;18.582;2023-05-07T08:53:06;14.83;38.64
69436;SHT31;56625;54.322;18.582;2023-05-07T08:55:34;14.78;38.36
69436;SHT31;56625;54.322;18.582;2023-05-07T08:58:02;14.71;38.10
69436;SHT31;56625;54.322;18.582;2023-05-07T09:00:31;14.61;36.73
69436;SHT31;56625;54.322;18.582;2023-05-07T09:03:00;14.52;36.93
69436;SHT31;56625;54.322;18.582;2023-05-07T09:05:28;14.53;37.23
69436;SHT31;56625;54.322;18.582;2023-05-07T09:07:58;14.63;37.19
69436;SHT31;56625;54.322;18.582;2023-05-07T09:10:29;14.66;34.88
69436;SHT31;56625;54.322;18.582;2023-05-07T09:12:57;14.64;34.23
69436;SHT31;56625;54.322;18.582;2023-05-07T09:15:25;14.64;35.35
69436;SHT31;56625;54.322;18.582;2023-05-07T09:17:58;14.76;35.23
69436;SHT31;56625;54.322;18.582;2023-05-07T09:20:30;14.73;32.67
69436;SHT31;56625;54.322;18.582;2023-05-07T09:22:59;14.68;32.78
69436;SHT31;56625;54.322;18.582;2023-05-07T09:25:27;14.65;33.00
69436;SHT31;56625;54.322;18.582;2023-05-07T09:28:00;14.65;34.71
69436;SHT31;56625;54.322;18.582;2023-05-07T09:30:30;14.69;36.74
69436;SHT31;56625;54.322;18.582;2023-05-07T09:33:01;14.73;36.41
69436;SHT31;56625;54.322;18.582;2023-05-07T09:35:31;14.70;33.94
69436;SHT31;56625;54.322;18.582;2023-05-07T09:38:00;14.66;33.62
69436;SHT31;56625;54.322;18.582;2023-05-07T09:40:31;14.59;33.43
69436;SHT31;56625;54.322;18.582;2023-05-07T09:43:11;14.63;33.61
69436;SHT31;56625;54.322;18.582;2023-05-07T09:45:41;14.62;33.28
69436;SHT31;56625;54.322;18.582;2023-05-07T09:48:10;14.50;35.00
69436;SHT31;56625;54.322;18.582;2023-05-07T09:50:41;14.54;35.42
69436;SHT31;56625;54.322;18.582;2023-05-07T09:53:18;14.57;34.48
69436;SHT31;56625;54.322;18.582;2023-05-07T09:55:47;14.61;34.82
69436;SHT31;56625;54.322;18.582;2023-05-07T09:58:16;14.68;34.97
69436;SHT31;56625;54.322;18.582;2023-05-07T10:00:46;14.58;34.84
69436;SHT31;56625;54.322;18.582;2023-05-07T10:03:14;14.62;34.53
69436;SHT31;56625;54.322;18.582;2023-05-07T10:05:43;14.76;33.76
69436;SHT31;56625;54.322;18.582;2023-05-07T10:08:12;14.76;34.03
69436;SHT31;56625;54.322;18.582;2023-05-07T10:10:40;14.78;33.80
69436;SHT31;56625;54.322;18.582;2023-05-07T10:13:09;14.81;34.08
69436;SHT31;56625;54.322;18.582;2023-05-07T10:15:38;14.83;33.82
69436;SHT31;56625;54.322;18.582;2023-05-07T10:18:07;14.86;34.70
69436;SHT31;56625;54.322;18.582;2023-05-07T10:20:37;14.93;35.41
69436;SHT31;56625;54.322;18.582;2023-05-07T10:23:07;15.03;35.42
69436;SHT31;56625;54.322;18.582;2023-05-07T10:25:45;15.07;35.45
69436;SHT31;56625;54.322;18.582;2023-05-07T10:28:14;15.10;35.39
69436;SHT31;56625;54.322;18.582;2023-05-07T10:33:37;15.39;34.75
69436;SHT31;56625;54.322;18.582;2023-05-07T10:36:07;15.27;34.95
69436;SHT31;56625;54.322;18.582;2023-05-07T10:38:35;15.24;35.86
69436;SHT31;56625;54.322;18.582;2023-05-07T10:41:03;15.17;35.56
69436;SHT31;56625;54.322;18.582;2023-05-07T10:43:40;15.21;35.14
69436;SHT31;56625;54.322;18.582;2023-05-07T10:46:19;15.26;35.76
69436;SHT31;56625;54.322;18.582;2023-05-07T10:49:10;15.22;35.59
69436;SHT31;56625;54.322;18.582;2023-05-07T10:51:39;15.16;36.07
69436;SHT31;56625;54.322;18.582;2023-05-07T10:56:39;15.19;33.93
69436;SHT31;56625;54.322;18.582;2023-05-07T11:01:54;15.21;31.01
69436;SHT31;56625;54.322;18.582;2023-05-07T11:04:30;15.27;30.20
69436;SHT31;56625;54.322;18.582;2023-05-07T11:15:06;15.50;29.53
69436;SHT31;56625;54.322;18.582;2023-05-07T11:17:52;15.44;30.04
69436;SHT31;56625;54.322;18.582;2023-05-07T11:26:04;15.49;31.01
69436;SHT31;56625;54.322;18.582;2023-05-07T11:28:38;15.45;30.71
69436;SHT31;56625;54.322;18.582;2023-05-07T11:31:11;15.28;31.32
69436;SHT31;56625;54.322;18.582;2023-05-07T11:33:39;15.24;30.93
69436;SHT31;56625;54.322;18.582;2023-05-07T11:36:07;15.27;31.09
69436;SHT31;56625;54.322;18.582;2023-05-07T11:38:37;15.30;31.45
69436;SHT31;56625;54.322;18.582;2023-05-07T11:41:06;15.28;31.87
69436;SHT31;56625;54.322;18.582;2023-05-07T11:43:35;15.23;30.86
69436;SHT31;56625;54.322;18.582;2023-05-07T11:46:10;15.14;29.87
69436;SHT31;56625;54.322;18.582;2023-05-07T11:48:41;15.08;30.05
69436;SHT31;56625;54.322;18.582;2023-05-07T11:51:11;15.14;30.36
69436;SHT31;56625;54.322;18.582;2023-05-07T11:53:42;15.20;30.34
69436;SHT31;56625;54.322;18.582;2023-05-07T11:56:11;15.21;29.96
69436;SHT31;56625;54.322;18.582;2023-05-07T11:58:42;15.14;30.41
69436;SHT31;56625;54.322;18.582;2023-05-07T12:01:12;15.02;31.58
69436;SHT31;56625;54.322;18.582;2023-05-07T12:03:43;15.02;30.98
69436;SHT31;56625;54.322;18.582;2023-05-07T12:06:14;14.97;31.05
69436;SHT31;56625;54.322;18.582;2023-05-07T12:08:45;14.87;31.43
69436;SHT31;56625;54.322;18.582;2023-05-07T12:11:15;14.76;30.50
69436;SHT31;56625;54.322;18.582;2023-05-07T12:13:51;14.74;30.52
69436;SHT31;56625;54.322;18.582;2023-05-07T12:16:26;14.82;30.93
69436;SHT31;56625;54.322;18.582;2023-05-07T12:18:55;14.84;31.23
69436;SHT31;56625;54.322;18.582;2023-05-07T12:21:26;14.89;30.75
69436;SHT31;56625;54.322;18.582;2023-05-07T12:23:57;14.81;30.41
69436;SHT31;56625;54.322;18.582;2023-05-07T12:26:26;14.82;30.63
69436;SHT31;56625;54.322;18.582;2023-05-07T12:28:54;14.97;31.46
69436;SHT31;56625;54.322;18.582;2023-05-07T12:31:25;15.14;31.08
69436;SHT31;56625;54.322;18.582;2023-05-07T12:33:56;15.22;30.35
69436;SHT31;56625;54.322;18.582;2023-05-07T12:36:36;15.16;29.45
69436;SHT31;56625;54.322;18.582;2023-05-07T12:39:07;15.06;30.07
69436;SHT31;56625;54.322;18.582;2023-05-07T12:41:58;15.01;30.16
69436;SHT31;56625;54.322;18.582;2023-05-07T12:44:31;14.93;31.14
69436;SHT31;56625;54.322;18.582;2023-05-07T12:47:08;15.00;31.23
69436;SHT31;56625;54.322;18.582;2023-05-07T12:49:40;14.95;30.98
69436;SHT31;56625;54.322;18.582;2023-05-07T12:52:09;14.92;31.39
69436;SHT31;56625;54.322;18.582;2023-05-07T12:54:39;14.91;31.67
69436;SHT31;56625;54.322;18.582;2023-05-07T12:57:08;14.83;32.22
69436;SHT31;56625;54.322;18.582;2023-05-07T12:59:38;14.75;32.61
69436;SHT31;56625;54.322;18.582;2023-05-07T13:02:08;14.74;33.28
69436;SHT31;56625;54.322;18.582;2023-05-07T13:04:37;14.81;33.94
69436;SHT31;56625;54.322;18.582;2023-05-07T13:07:05;14.88;33.37
69436;SHT31;56625;54.322;18.582;2023-05-07T13:09:33;14.97;34.02
69436;SHT31;56625;54.322;18.582;2023-05-07T13:12:01;15.11;33.79
69436;SHT31;56625;54.322;18.582;2023-05-07T13:14:31;15.19;34.17
69436;SHT31;56625;54.322;18.582;2023-05-07T13:16:59;15.18;33.66
69436;SHT31;56625;54.322;18.582;2023-05-07T13:19:27;15.07;34.21
69436;SHT31;56625;54.322;18.582;2023-05-07T13:21:57;15.01;34.34
69436;SHT31;56625;54.322;18.582;2023-05-07T13:24:26;15.00;33.52
69436;SHT31;56625;54.322;18.582;2023-05-07T13:26:58;14.88;33.75
69436;SHT31;56625;54.322;18.582;2023-05-07T13:29:29;14.80;34.59
69436;SHT31;56625;54.322;18.582;2023-05-07T13:31:58;14.78;34.12
69436;SHT31;56625;54.322;18.582;2023-05-07T13:34:26;14.75;34.00
69436;SHT31;56625;54.322;18.582;2023-05-07T13:36:55;14.82;33.75
69436;SHT31;56625;54.322;18.582;2023-05-07T13:39:24;14.87;33.73
69436;SHT31;56625;54.322;18.582;2023-05-07T13:41:52;14.81;33.58
69436;SHT31;56625;54.322;18.582;2023-05-07T13:44:20;14.77;34.21
69436;SHT31;56625;54.322;18.582;2023-05-07T13:46:48;14.78;33.50
69436;SHT31;56625;54.322;18.582;2023-05-07T13:49:16;14.77;32.91
69436;SHT31;56625;54.322;18.582;2023-05-07T13:51:43;14.79;32.81
69436;SHT31;56625;54.322;18.582;2023-05-07T13:54:11;14.84;33.50
69436;SHT31;56625;54.322;18.582;2023-05-07T13:56:39;14.94;33.71
69436;SHT31;56625;54.322;18.582;2023-05-07T13:59:07;14.92;32.93
69436;SHT31;56625;54.322;18.582;2023-05-07T14:01:36;14.86;33.13
69436;SHT31;56625;54.322;18.582;2023-05-07T14:04:04;14.68;33.56
69436;SHT31;56625;54.322;18.582;2023-05-07T14:06:31;14.59;33.18
69436;SHT31;56625;54.322;18.582;2023-05-07T14:08:59;14.56;33.96
69436;SHT31;56625;54.322;18.582;2023-05-07T14:11:27;14.59;33.33
69436;SHT31;56625;54.322;18.582;2023-05-07T14:13:55;14.48;33.02
69436;SHT31;56625;54.322;18.582;2023-05-07T14:16:24;14.52;33.47
69436;SHT31;56625;54.322;18.582;2023-05-07T14:18:52;14.52;32.66
69436;SHT31;56625;54.322;18.582;2023-05-07T14:21:24;14.49;32.87
69436;SHT31;56625;54.322;18.582;2023-05-07T14:23:52;14.50;32.68
69436;SHT31;56625;54.322;18.582;2023-05-07T14:26:20;14.53;32.92
69436;SHT31;56625;54.322;18.582;2023-05-07T14:28:48;14.45;32.15
69436;SHT31;56625;54.322;18.582;2023-05-07T14:31:16;14.32;32.30
69436;SHT31;56625;54.322;18.582;2023-05-07T14:33:44;14.25;32.66
69436;SHT31;56625;54.322;18.582;2023-05-07T14:36:12;14.11;32.49
69436;SHT31;56625;54.322;18.582;2023-05-07T14:38:40;14.02;33.23
69436;SHT31;56625;54.322;18.582;2023-05-07T14:41:08;13.95;33.22
69436;SHT31;56625;54.322;18.582;2023-05-07T14:43:36;13.87;33.31
69436;SHT31;56625;54.322;18.582;2023-05-07T14:46:03;13.65;33.23
69436;SHT31;56625;54.322;18.582;2023-05-07T14:48:31;13.55;33.38
69436;SHT31;56625;54.322;18.582;2023-05-07T14:50:59;13.49;33.74
69436;SHT31;56625;54.322;18.582;2023-05-07T14:53:27;13.42;34.10
69436;SHT31;56625;54.322;18.582;2023-05-07T14:55:55;13.38;34.27
69436;SHT31;56625;54.322;18.582;2023-05-07T14:58:23;13.32;34.24
69436;SHT31;56625;54.322;18.582;2023-05-07T15:00:51;13.36;34.63
69436;SHT31;56625;54.322;18.582;2023-05-07T15:03:19;13.32;34.74
69436;SHT31;56625;54.322;18.582;2023-05-07T15:05:47;13.33;34.86
69436;SHT31;56625;54.322;18.582;2023-05-07T15:08:15;13.37;34.99
69436;SHT31;56625;54.322;18.582;2023-05-07T15:10:42;13.41;34.78
69436;SHT31;56625;54.322;18.582;2023-05-07T15:13:11;13.46;34.70
69436;SHT31;56625;54.322;18.582;2023-05-07T15:15:42;13.43;34.18
69436;SHT31;56625;54.322;18.582;2023-05-07T15:18:12;13.36;34.17
69436;SHT31;56625;54.322;18.582;2023-05-07T15:20:41;13.28;33.49
69436;SHT31;56625;54.322;18.582;2023-05-07T15:23:09;13.28;34.20
69436;SHT31;56625;54.322;18.582;2023-05-07T15:25:39;13.27;34.26
69436;SHT31;56625;54.322;18.582;2023-05-07T15:28:07;13.24;34.35
69436;SHT31;56625;54.322;18.582;2023-05-07T15:30:36;13.21;34.51
69436;SHT31;56625;54.322;18.582;2023-05-07T15:33:04;13.17;34.29
69436;SHT31;56625;54.322;18.582;2023-05-07T15:35:33;13.11;34.24
69436;SHT31;56625;54.322;18.582;2023-05-07T15:38:01;13.15;34.37
69436;SHT31;56625;54.322;18.582;2023-05-07T15:40:30;13.19;34.59
69436;SHT31;56625;54.322;18.582;2023-05-07T15:42:58;13.16;34.10
69436;SHT31;56625;54.322;18.582;2023-05-07T15:45:27;13.12;34.20
69436;SHT31;56625;54.322;18.582;2023-05-07T15:47:55;13.11;34.58
69436;SHT31;56625;54.322;18.582;2023-05-07T15:50:23;13.08;34.71
69436;SHT31;56625;54.322;18.582;2023-05-07T15:52:51;13.02;34.41